Hart, Texas
Current Conditions -  °F | °C
As of 5:35 PM on Monday 20 Oct 2014 (Local Time) from KPVW Reporting Station
Clear Clear  
Wind Chill: 71°   Ceiling: Unl
Heat Index: 71°   Visibility: 10mi
Dew Point: 59°   Wind: 3mph
Humidity: 66%   Direction: 240°WSW
Pressure: 30.06"   Gusts: NA
Location:  34.39°N, 102.12°W
Report Text: KPVW 202235Z AUTO 24003KT 10SM CLR 21/15 A3006 RMK AO2 T02140148
Loading
Personal Weather Stations






























Interactive Weather Map
Tropical Storm Tracking
New forecast layout! Learn more

10-Day Weather Forecast

Advertisements
Track Severe Weather on mobile